Accueil
METAR-TAF:

METAR-TAF

Aéroports :

Komatsujima, Japon

latitude: 34-00N, longitude: 134-38E, altitude: 3 m

Observation

Le bulletin a été fait il y a 13 heures et 40 minutes, à 15:21 UTC
Vent 9 kt de ouest
Température 7°C
Humidité 81%
Pression 1026 hPa
Visibilité: 6000 m
Quelques nuages à une hauteur de 1500 ft
Nuages fragmentés à une hauteur de 3000 ft
Ciel couvert à une hauteur de 5000 ft
faibles averses de pluie

METAR: RJOP 251521Z 28009KT 6000 -SHRA FEW015 BKN030 OVC050 07/04 Q1026 RMK 1CU015 5CU030 8SC050 A3031

Heure: 14:01 (05:01 UTC)


TAF: absent

Observations et prévisions météorologiques de plus de 4000 aéroports (messages METAR et TAF).

Les stations disponibles sont représentées par des disques jaunes et rouges sur la carte.

Passer la souris dessus pour voir le nom de la station.

Cliquer dessus pour voir les observations et prévisions météorologiques.

Pour changer de carte: cliquez sur les boutons verts avec une croix noire pour zoomer, sur le bouton vert avec un tiret pour effectuer un zoom arrière, ou sur les flèches vertes pour les cartes adjacentes.


METAR-TAF: